Main page
METAR-TAF:

METAR-TAF

Airports :

Minorca, Spain

Menorca Airport

latitude: 39-52N, longitude: 004-14E, elevation: 87 m

Current weather observation

The report was made 23 minutes ago, at 07:00 UTC
Wind 5 kt from the South
Temperature 14°C
Humidity 82%
Pressure 1019 hPa
Visibility 10 km or more
Broken clouds at a height of 2500 ft

METAR: LEMH 220700Z 17005KT 9999 BKN025 14/11 Q1019

Time: 08:23 (07:23 UTC)

Forecast

The report was made 5 hours and 23 minutes ago, at 02:00 UTC
Forecast valid from 22 at 03 UTC to 23 at 03 UTC
Wind 9 kt from the South
Visibility 10 km or more
Few clouds at a height of 2000 ft
Probability 30% :
Temporary
from 22 at 03 UTC to 22 at 08 UTC
Broken clouds at a height of 1400 ft

TAF: LEMH 220200Z 2203/2303 18009KT 9999 FEW020 TX19/2212Z TN09/2206Z PROB30 TEMPO 2203/2208 BKN014

Weather observations and forecasts of more than 4000 airports (METAR and TAF reports).

The available stations are represented by yellow and red dots on the map.

Hover mouse over dot to see the name of the station.

Then click to see weather observations and forecasts.

To change the map : click on the green buttons with a black cross to zoom in, on the green button with a dash to zoom out, or on the green arrows for adjacent maps.


METAR-TAF: